Time;durP1;ratioP1;P1;durP2;ratioP2;P2;SDS_P1;SDS_P2;PMS_P1;PMS_P2;Temp;Humidity;BMP_temperature;BMP_pressure;BME280_temperature;BME280_humidity;BME280_pressure;Samples;Min_cycle;Max_cycle;Signal;HPM_P1;HPM_P2
2023/04/23 00:00:39;;;;;;;4.30;2.35;;;;;;;8.40;53.36;100689.59;5006837;28;20524;-72
2023/04/23 00:03:11;;;;;;;3.47;1.88;;;;;;;8.15;53.70;100685.22;5011156;28;20087;-71
2023/04/23 00:05:38;;;;;;;4.93;2.00;;;;;;;8.15;53.61;100685.22;5015822;28;20091;-72
2023/04/23 00:08:04;;;;;;;3.40;2.20;;;;;;;8.07;54.03;100682.03;5009816;28;20037;-72
2023/04/23 00:10:31;;;;;;;7.10;2.72;;;;;;;7.95;54.03;100688.47;4989301;28;20396;-72
2023/04/23 00:12:56;;;;;;;4.43;2.92;;;;;;;7.97;54.14;100690.19;5000948;28;20034;-70
2023/04/23 00:15:22;;;;;;;7.72;3.17;;;;;;;7.92;54.14;100685.97;5003646;28;20064;-70
2023/04/23 00:17:48;;;;;;;5.80;3.88;;;;;;;7.72;54.21;100684.00;4989988;28;20163;-70
2023/04/23 00:20:15;;;;;;;9.32;4.30;;;;;;;7.55;54.58;100681.03;5009861;28;21164;-70
2023/04/23 00:22:42;;;;;;;10.20;4.50;;;;;;;7.63;54.86;100686.88;5006896;28;20037;-70
2023/04/23 00:25:08;;;;;;;12.48;5.75;;;;;;;7.61;54.51;100673.06;5008985;28;20029;-70
2023/04/23 00:27:33;;;;;;;14.25;6.03;;;;;;;7.59;54.93;100674.84;5003780;28;20037;-69
2023/04/23 00:29:59;;;;;;;9.18;5.47;;;;;;;7.58;54.75;100670.56;5008141;28;20041;-70
2023/04/23 00:32:29;;;;;;;8.65;5.72;;;;;;;7.59;54.55;100677.47;4991020;28;20199;-70
2023/04/23 00:34:55;;;;;;;10.55;5.00;;;;;;;7.48;54.89;100676.91;5005784;28;20064;-70
2023/04/23 00:37:21;;;;;;;9.55;6.00;;;;;;;7.57;54.87;100681.84;5009624;28;20100;-69
2023/04/23 00:39:47;;;;;;;13.43;5.78;;;;;;;7.41;54.70;100681.44;5016625;28;20136;-70
2023/04/23 00:42:16;;;;;;;11.55;5.65;;;;;;;7.29;55.08;100679.22;4994227;28;20453;-70
2023/04/23 00:44:42;;;;;;;8.50;5.18;;;;;;;7.31;55.13;100683.47;5005620;28;20064;-71
2023/04/23 00:47:08;;;;;;;7.75;5.47;;;;;;;7.23;55.24;100679.38;5026205;28;20056;-72
2023/04/23 00:49:34;;;;;;;8.70;6.22;;;;;;;7.06;55.99;100685.06;4995559;28;20045;-72
2023/04/23 00:52:00;;;;;;;12.20;5.97;;;;;;;7.11;56.06;100683.19;5001281;28;20037;-71
2023/04/23 00:54:26;;;;;;;10.40;6.30;;;;;;;7.13;55.85;100683.97;5010355;28;20589;-69
2023/04/23 00:56:53;;;;;;;11.00;6.45;;;;;;;7.20;55.94;100682.94;4997522;28;20103;-70
2023/04/23 00:59:19;;;;;;;14.32;6.47;;;;;;;6.87;56.24;100680.38;5011772;28;20265;-71
2023/04/23 01:01:46;;;;;;;12.25;7.40;;;;;;;6.97;56.35;100683.56;4989601;28;20554;-71
2023/04/23 01:04:16;;;;;;;17.45;8.32;;;;;;;7.04;56.26;100687.72;5005511;28;20042;-73
2023/04/23 01:06:42;;;;;;;12.10;6.63;;;;;;;7.15;56.29;100682.19;5010697;28;20034;-72
2023/04/23 01:09:11;;;;;;;16.05;7.95;;;;;;;7.10;56.40;100691.88;5014711;28;20117;-72
2023/04/23 01:11:42;;;;;;;16.48;7.80;;;;;;;7.13;56.14;100694.38;5007418;28;20068;-72
2023/04/23 01:14:09;;;;;;;10.48;7.57;;;;;;;7.06;56.36;100690.25;4997408;28;20513;-73
2023/04/23 01:16:37;;;;;;;15.70;7.28;;;;;;;7.17;56.08;100687.34;5003281;28;20047;-75
2023/04/23 01:19:07;;;;;;;14.70;7.78;;;;;;;7.05;56.14;100693.75;5015249;28;20042;-75
2023/04/23 01:21:34;;;;;;;19.25;8.35;;;;;;;6.91;56.23;100688.94;5009685;28;20044;-75
2023/04/23 01:24:01;;;;;;;14.60;7.88;;;;;;;6.86;56.37;100683.88;5014165;28;20465;-71
2023/04/23 01:26:27;;;;;;;14.20;8.00;;;;;;;6.99;56.37;100680.94;5028693;28;20592;-72
2023/04/23 01:28:53;;;;;;;14.30;8.77;;;;;;;7.01;56.32;100684.34;5009106;28;20132;-75
2023/04/23 01:31:18;;;;;;;17.65;7.70;;;;;;;7.01;55.73;100692.13;4997670;28;20430;-76
2023/04/23 01:33:44;;;;;;;12.68;7.63;;;;;;;6.85;56.61;100676.97;4993931;28;20088;-76
2023/04/23 01:36:10;;;;;;;14.93;8.05;;;;;;;7.07;56.42;100681.56;5012762;28;20115;-75
2023/04/23 01:38:37;;;;;;;18.02;8.77;;;;;;;6.83;56.59;100686.56;5005934;28;20125;-76
2023/04/23 01:41:03;;;;;;;13.80;6.90;;;;;;;6.96;56.01;100684.47;5015850;28;20048;-75
2023/04/23 01:43:30;;;;;;;18.42;8.05;;;;;;;7.00;56.26;100685.22;4995661;28;20037;-73
2023/04/23 01:45:57;;;;;;;12.32;8.15;;;;;;;6.94;56.19;100685.41;5010993;28;20175;-73
2023/04/23 01:48:23;;;;;;;14.68;8.20;;;;;;;7.02;55.90;100683.44;5010810;28;20132;-74
2023/04/23 01:50:50;;;;;;;12.27;8.20;;;;;;;6.91;56.08;100684.59;5003825;28;20063;-73
2023/04/23 01:53:15;;;;;;;15.00;7.70;;;;;;;6.75;56.48;100685.91;5010758;28;20608;-73
2023/04/23 01:55:44;;;;;;;17.67;8.55;;;;;;;6.96;56.06;100688.81;4990352;28;20033;-73
2023/04/23 01:58:10;;;;;;;13.88;8.20;;;;;;;6.90;56.26;100695.88;5028735;28;20068;-72
2023/04/23 02:00:35;;;;;;;18.30;9.68;;;;;;;6.81;56.40;100692.69;5023868;28;20618;-73
2023/04/23 02:03:01;;;;;;;16.10;8.32;;;;;;;6.72;56.54;100705.94;5003153;28;20029;-73
2023/04/23 02:05:28;;;;;;;14.70;8.30;;;;;;;6.84;56.39;100690.88;5009168;28;20042;-73
2023/04/23 02:07:54;;;;;;;12.43;7.78;;;;;;;6.86;56.17;100689.09;5008090;28;20613;-72
2023/04/23 02:10:20;;;;;;;12.27;6.82;;;;;;;6.93;56.03;100691.50;5007781;28;20037;-74
2023/04/23 02:12:47;;;;;;;15.65;8.68;;;;;;;6.93;55.69;100688.88;5008778;28;20583;-74
2023/04/23 02:15:14;;;;;;;11.38;7.55;;;;;;;6.68;56.48;100687.81;5010139;28;20423;-73
2023/04/23 02:17:40;;;;;;;19.05;8.48;;;;;;;6.76;56.41;100695.41;5007839;28;20033;-74
2023/04/23 02:20:08;;;;;;;13.25;8.60;;;;;;;6.90;55.92;100689.84;5001166;28;20033;-73
2023/04/23 02:22:39;;;;;;;22.88;7.90;;;;;;;6.47;56.75;100691.81;5007529;28;20037;-73
2023/04/23 02:25:06;;;;;;;16.05;9.00;;;;;;;6.68;55.99;100700.78;5004940;28;20033;-73
2023/04/23 02:27:32;;;;;;;13.52;8.32;;;;;;;6.83;55.91;100688.31;5000704;28;20033;-72
2023/04/23 02:29:57;;;;;;;12.35;8.18;;;;;;;6.85;55.66;100691.72;5005802;28;20044;-72
2023/04/23 02:32:23;;;;;;;14.68;9.18;;;;;;;6.84;55.99;100690.00;5009227;28;20048;-72
2023/04/23 02:34:49;;;;;;;14.43;8.00;;;;;;;6.90;55.38;100698.47;5004281;28;20045;-73
2023/04/23 02:37:14;;;;;;;19.50;8.55;;;;;;;6.83;55.53;100702.13;5009891;28;20049;-73
2023/04/23 02:39:40;;;;;;;12.52;8.80;;;;;;;6.84;55.28;100685.66;5007326;28;20192;-74
2023/04/23 02:42:06;;;;;;;17.08;10.02;;;;;;;6.78;55.43;100698.81;4995534;28;20164;-74
2023/04/23 02:44:32;;;;;;;16.48;8.55;;;;;;;6.63;55.36;100694.03;5005520;28;20041;-74
2023/04/23 02:46:57;;;;;;;13.23;7.43;;;;;;;6.50;55.33;100701.28;4971818;28;1114561;-73
2023/04/23 02:49:23;;;;;;;13.95;8.48;;;;;;;6.43;55.80;100692.78;5016846;28;20041;-70
2023/04/23 02:51:48;;;;;;;15.63;9.15;;;;;;;6.37;55.76;100699.88;4992842;28;20042;-73
2023/04/23 02:54:14;;;;;;;19.08;10.10;;;;;;;6.29;56.33;100695.75;5008038;28;20041;-74
2023/04/23 02:56:40;;;;;;;16.90;8.80;;;;;;;6.19;56.65;100698.56;5007276;28;20037;-72
2023/04/23 02:59:07;;;;;;;20.33;9.60;;;;;;;6.08;56.94;100701.41;5012482;28;20056;-73
2023/04/23 03:01:33;;;;;;;16.20;8.73;;;;;;;6.32;56.71;100702.59;4993372;28;20425;-69
2023/04/23 03:03:59;;;;;;;18.88;10.38;;;;;;;6.15;57.18;100704.72;5009778;28;20040;-70
2023/04/23 03:06:25;;;;;;;19.33;10.13;;;;;;;6.29;56.41;100698.34;5009617;28;20034;-75
2023/04/23 03:08:51;;;;;;;20.00;9.85;;;;;;;6.09;57.17;100709.19;5008332;28;20041;-74
2023/04/23 03:11:19;;;;;;;16.70;9.95;;;;;;;6.01;57.23;100703.31;5010346;28;20037;-71
2023/04/23 03:13:44;;;;;;;18.17;10.50;;;;;;;5.93;57.26;100710.44;5012666;28;20129;-73
2023/04/23 03:16:10;;;;;;;19.63;11.07;;;;;;;5.94;56.78;100695.72;5011592;28;20585;-73
2023/04/23 03:18:35;;;;;;;18.10;10.68;;;;;;;5.85;57.13;100694.19;5009767;28;20673;-74
2023/04/23 03:21:01;;;;;;;20.55;10.75;;;;;;;5.84;56.97;100701.13;4997053;28;20053;-73
2023/04/23 03:23:27;;;;;;;21.92;9.95;;;;;;;5.85;56.96;100699.38;5007399;28;20513;-67
2023/04/23 03:25:52;;;;;;;22.52;11.30;;;;;;;5.70;57.25;100703.16;5007308;28;20104;-69
2023/04/23 03:28:17;;;;;;;21.00;11.20;;;;;;;5.55;58.29;100706.13;5008062;28;20033;-69
2023/04/23 03:30:43;;;;;;;24.83;11.35;;;;;;;5.69;57.98;100705.81;5002756;28;20036;-68
2023/04/23 03:33:09;;;;;;;20.48;11.63;;;;;;;5.79;57.46;100702.09;5009276;28;20128;-69
2023/04/23 03:35:35;;;;;;;21.80;11.27;;;;;;;6.09;57.01;100703.97;5008281;28;20061;-69
2023/04/23 03:38:06;;;;;;;28.05;13.13;;;;;;;5.89;57.75;100708.78;5007601;28;20029;-69
2023/04/23 03:40:34;;;;;;;24.75;14.85;;;;;;;5.76;58.22;100702.19;5008162;28;20065;-75
2023/04/23 03:43:02;;;;;;;26.05;14.15;;;;;;;5.99;57.40;100701.63;4994368;28;20044;-75
2023/04/23 03:45:46;;;;;;;28.92;14.40;;;;;;;5.43;58.65;100696.84;5026693;28;20142;-74
2023/04/23 03:48:12;;;;;;;35.33;16.48;;;;;;;5.56;59.16;100695.69;5012769;28;20064;-74
2023/04/23 03:50:39;;;;;;;37.58;18.02;;;;;;;5.39;59.64;100693.47;5012714;28;20032;-76
2023/04/23 03:53:12;;;;;;;38.80;17.60;;;;;;;5.47;59.30;100690.72;5010477;28;20156;-75
2023/04/23 03:56:07;;;;;;;34.33;17.33;;;;;;;5.35;59.96;100696.16;5008743;28;20045;-74
2023/04/23 03:58:38;;;;;;;38.95;19.30;;;;;;;5.60;59.80;100699.94;5003528;28;20038;-74
2023/04/23 04:01:05;;;;;;;39.33;18.55;;;;;;;5.78;59.06;100692.63;5008528;28;20041;-73
2023/04/23 04:03:31;;;;;;;41.08;19.05;;;;;;;5.15;60.27;100694.84;5000141;28;20044;-73
2023/04/23 04:05:56;;;;;;;41.53;21.38;;;;;;;4.87;61.46;100704.00;5009648;28;20037;-74
2023/04/23 04:08:25;;;;;;;46.17;21.08;;;;;;;5.29;60.99;100691.09;5008854;28;20053;-73
2023/04/23 04:10:51;;;;;;;42.72;21.42;;;;;;;5.84;59.26;100692.50;4993252;28;20061;-73
2023/04/23 04:13:17;;;;;;;44.03;20.17;;;;;;;6.13;58.14;100696.13;5009850;28;20060;-75
2023/04/23 04:15:42;;;;;;;43.05;19.25;;;;;;;6.02;58.39;100693.81;5009552;28;20025;-73
2023/04/23 04:18:08;;;;;;;56.10;22.92;;;;;;;5.72;58.70;100695.34;5007604;28;20523;-69
2023/04/23 04:20:33;;;;;;;42.55;19.85;;;;;;;5.81;58.38;100698.56;5005949;28;20092;-68
2023/04/23 04:22:59;;;;;;;42.88;19.98;;;;;;;6.02;57.92;100697.25;5007510;28;20100;-70
2023/04/23 04:25:24;;;;;;;45.30;20.80;;;;;;;5.85;58.09;100687.25;5007683;28;20103;-69
2023/04/23 04:27:52;;;;;;;50.25;22.73;;;;;;;5.97;57.97;100691.31;5005938;28;20021;-69
2023/04/23 04:30:17;;;;;;;44.13;20.45;;;;;;;5.97;58.09;100691.31;5007173;28;20055;-69
2023/04/23 04:32:44;;;;;;;46.03;20.88;;;;;;;5.91;58.07;100688.88;5008359;28;20033;-69
2023/04/23 04:35:11;;;;;;;41.67;20.45;;;;;;;6.16;57.26;100693.47;5008283;28;20142;-72
2023/04/23 04:37:37;;;;;;;43.53;20.30;;;;;;;5.76;58.17;100691.81;5007532;28;20034;-69
2023/04/23 04:40:03;;;;;;;38.13;20.83;;;;;;;5.83;57.83;100693.38;5007242;28;20084;-67
2023/04/23 04:42:29;;;;;;;43.20;20.23;;;;;;;5.91;57.79;100694.06;5008356;28;20030;-71
2023/04/23 04:44:58;;;;;;;43.65;19.77;;;;;;;6.07;57.57;100697.97;5020789;28;20048;-72
2023/04/23 04:47:24;;;;;;;43.35;20.13;;;;;;;5.72;58.03;100696.19;5020050;28;20116;-72
2023/04/23 04:49:50;;;;;;;47.47;19.35;;;;;;;6.00;57.46;100693.81;5003930;28;20491;-72
2023/04/23 04:52:16;;;;;;;42.22;19.30;;;;;;;6.22;57.65;100701.09;5003572;28;20056;-73
2023/04/23 04:54:42;;;;;;;44.65;21.08;;;;;;;5.56;58.64;100700.88;5003146;28;20132;-70
2023/04/23 04:57:07;;;;;;;45.08;20.08;;;;;;;5.14;59.59;100695.69;5004846;28;20037;-71
2023/04/23 04:59:32;;;;;;;43.40;20.10;;;;;;;5.84;58.42;100692.50;4996821;28;20041;-71
2023/04/23 05:01:58;;;;;;;45.63;21.23;;;;;;;5.71;58.14;100689.31;5009162;28;20041;-71
2023/04/23 05:04:24;;;;;;;39.97;19.85;;;;;;;5.70;58.56;100686.75;5007813;28;20128;-72
2023/04/23 05:06:49;;;;;;;46.13;19.75;;;;;;;5.72;57.95;100690.16;5008212;28;20294;-73
2023/04/23 05:09:15;;;;;;;44.22;19.40;;;;;;;6.01;57.65;100692.94;5004076;28;20041;-72
2023/04/23 05:11:41;;;;;;;49.70;21.73;;;;;;;5.81;57.93;100695.13;5009516;28;20083;-68
2023/04/23 05:14:07;;;;;;;46.55;20.23;;;;;;;5.63;58.97;100692.06;5004101;28;20270;-72
2023/04/23 05:16:33;;;;;;;47.03;22.88;;;;;;;6.11;57.79;100690.13;5007567;28;20450;-72
2023/04/23 05:18:58;;;;;;;48.67;22.65;;;;;;;6.02;57.72;100689.47;4999058;28;20897;-72
2023/04/23 05:21:26;;;;;;;45.13;21.83;;;;;;;5.86;58.04;100693.31;5004711;28;20034;-74
2023/04/23 05:23:52;;;;;;;45.42;21.80;;;;;;;6.27;56.96;100694.91;5009798;28;20037;-74
2023/04/23 05:26:18;;;;;;;48.00;22.08;;;;;;;6.26;57.62;100692.31;5001849;28;20033;-70
2023/04/23 05:28:43;;;;;;;54.58;23.15;;;;;;;6.09;58.09;100691.00;5006986;28;20120;-69
2023/04/23 05:31:08;;;;;;;50.95;21.58;;;;;;;6.49;56.91;100694.41;4990880;28;20054;-69
2023/04/23 05:33:34;;;;;;;49.50;22.40;;;;;;;6.43;57.14;100690.19;5007482;28;20091;-71
2023/04/23 05:35:59;;;;;;;45.22;21.42;;;;;;;6.56;56.44;100687.31;5007389;28;20025;-70
2023/04/23 05:38:25;;;;;;;45.05;19.80;;;;;;;6.48;56.36;100682.28;5008453;28;20052;-70
2023/04/23 05:40:51;;;;;;;43.85;22.33;;;;;;;6.49;56.44;100679.66;5011228;28;20505;-70
2023/04/23 05:43:16;;;;;;;42.53;20.20;;;;;;;6.65;56.65;100684.47;5008810;28;20108;-71
2023/04/23 05:45:42;;;;;;;43.58;21.75;;;;;;;6.50;56.07;100685.69;5012156;28;20025;-70
2023/04/23 05:48:08;;;;;;;46.22;20.83;;;;;;;6.61;56.06;100688.03;5010415;28;20108;-69
2023/04/23 05:50:33;;;;;;;47.97;21.75;;;;;;;6.56;55.37;100682.09;5009335;28;21327;-70
2023/04/23 05:52:59;;;;;;;51.78;21.75;;;;;;;6.57;55.97;100678.59;5008845;28;20089;-70
2023/04/23 05:55:25;;;;;;;45.03;21.35;;;;;;;6.50;56.08;100678.75;5011425;28;20061;-72
2023/04/23 05:57:50;;;;;;;46.25;20.90;;;;;;;6.72;55.93;100678.19;5010597;28;20041;-71
2023/04/23 06:00:16;;;;;;;42.92;20.83;;;;;;;6.66;55.90;100678.34;5008648;28;20335;-72
2023/04/23 06:02:42;;;;;;;55.97;23.35;;;;;;;6.97;55.95;100675.78;5010171;28;20390;-71
2023/04/23 06:05:08;;;;;;;48.33;21.05;;;;;;;7.33;55.62;100671.28;4994268;28;20041;-73
2023/04/23 06:07:33;;;;;;;46.15;22.52;;;;;;;7.53;55.08;100667.19;4991773;28;20524;-70
2023/04/23 06:09:59;;;;;;;43.83;22.13;;;;;;;7.81;54.47;100671.59;5008457;28;20298;-71
2023/04/23 06:12:25;;;;;;;52.10;24.45;;;;;;;7.74;55.06;100674.38;5021176;28;20064;-71
2023/04/23 06:14:54;;;;;;;46.10;22.50;;;;;;;8.03;52.75;100667.41;5008453;28;20049;-70
2023/04/23 06:17:19;;;;;;;43.90;22.30;;;;;;;8.08;53.23;100659.44;5026382;28;20048;-75
2023/04/23 06:19:45;;;;;;;41.83;22.10;;;;;;;8.33;52.95;100664.69;5008580;28;20498;-75
2023/04/23 06:22:10;;;;;;;47.80;22.10;;;;;;;8.20;52.24;100655.56;5009780;28;20060;-71
2023/04/23 06:24:36;;;;;;;45.63;22.02;;;;;;;8.69;52.71;100657.31;4989941;28;20045;-70
2023/04/23 06:27:02;;;;;;;45.95;22.83;;;;;;;8.77;50.51;100650.13;4993846;28;20026;-72
2023/04/23 06:29:29;;;;;;;44.17;21.95;;;;;;;9.09;50.19;100657.69;4992154;28;20406;-69
2023/04/23 06:32:02;;;;;;;;;;;;;;;9.24;50.80;100657.09;4993008;28;20029;-69
2023/04/23 06:34:27;;;;;;;48.65;22.63;;;;;;;9.18;50.65;100665.16;5008073;28;20003;-68
2023/04/23 06:36:53;;;;;;;41.80;20.52;;;;;;;9.43;50.91;100659.84;5007434;28;20045;-67
2023/04/23 06:39:18;;;;;;;46.90;20.75;;;;;;;9.15;50.48;100667.88;5008353;28;20128;-68
2023/04/23 06:41:44;;;;;;;51.20;22.83;;;;;;;8.61;51.06;100661.97;5009315;28;20053;-69
2023/04/23 06:44:33;;;;;;;45.92;24.40;;;;;;;7.70;54.24;100674.53;5009612;28;20469;-69
2023/04/23 06:46:59;;;;;;;39.78;22.65;;;;;;;8.53;52.66;100664.84;5007998;28;20103;-69
2023/04/23 06:49:25;;;;;;;48.97;23.70;;;;;;;9.64;50.62;100663.41;5002915;28;20049;-70
2023/04/23 06:51:51;;;;;;;44.10;22.60;;;;;;;10.43;48.81;100653.22;5006502;28;20069;-69
2023/04/23 06:54:17;;;;;;;45.20;22.33;;;;;;;10.31;46.96;100651.13;5009563;28;20091;-74
2023/04/23 06:56:42;;;;;;;47.67;22.98;;;;;;;9.49;49.71;100650.94;5010021;28;20030;-68
2023/04/23 06:59:08;;;;;;;52.95;25.05;;;;;;;9.65;49.44;100644.19;5008598;28;20087;-70
2023/04/23 07:01:42;;;;;;;47.25;25.75;;;;;;;9.72;50.42;100650.91;5009238;28;20037;-68
2023/04/23 07:04:07;;;;;;;56.80;27.27;;;;;;;10.13;49.33;100652.75;5009387;28;20537;-75
2023/04/23 07:06:34;;;;;;;54.90;26.35;;;;;;;8.77;51.58;100657.09;5007800;28;20025;-73
2023/04/23 07:09:00;;;;;;;51.33;25.80;;;;;;;10.17;49.21;100649.13;5009376;28;20047;-74
2023/04/23 07:11:26;;;;;;;46.35;25.08;;;;;;;10.95;47.84;100642.25;5007036;28;20033;-74
2023/04/23 07:13:51;;;;;;;55.65;27.40;;;;;;;10.80;46.65;100633.31;4992728;28;20123;-71
2023/04/23 07:16:17;;;;;;;50.28;25.90;;;;;;;10.83;47.06;100635.81;5005027;28;20038;-70
2023/04/23 07:18:43;;;;;;;47.95;25.25;;;;;;;10.97;45.61;100641.28;5002814;28;20413;-71
2023/04/23 07:21:08;;;;;;;61.58;27.63;;;;;;;11.22;45.64;100645.41;5010403;28;20029;-69
2023/04/23 07:23:34;;;;;;;52.53;26.95;;;;;;;12.10;45.64;100638.59;5005524;28;20049;-70
2023/04/23 07:25:59;;;;;;;51.55;28.40;;;;;;;13.00;42.36;100636.50;5010493;28;20025;-71
2023/04/23 07:28:25;;;;;;;56.15;28.25;;;;;;;12.70;42.14;100639.00;5004847;28;20026;-73
2023/04/23 07:30:50;;;;;;;55.20;28.30;;;;;;;11.15;44.50;100643.97;5008489;28;20033;-70
2023/04/23 07:33:16;;;;;;;57.28;28.20;;;;;;;10.87;45.81;100642.63;5004603;28;20219;-71
2023/04/23 07:35:42;;;;;;;56.08;29.20;;;;;;;8.87;50.40;100648.03;5006940;28;20469;-71
2023/04/23 07:38:07;;;;;;;60.30;29.77;;;;;;;10.02;49.21;100642.75;5004929;28;20037;-71
2023/04/23 07:40:33;;;;;;;61.67;29.60;;;;;;;10.80;48.22;100646.41;5004695;28;20069;-70
2023/04/23 07:42:58;;;;;;;57.30;27.63;;;;;;;10.07;49.18;100647.78;5010424;28;20387;-71
2023/04/23 07:45:26;;;;;;;63.80;31.67;;;;;;;9.60;50.55;100646.16;4987821;28;20045;-71
2023/04/23 07:47:53;;;;;;;67.20;32.08;;;;;;;10.50;47.89;100631.13;5006423;28;20033;-70
2023/04/23 07:50:19;;;;;;;60.00;30.83;;;;;;;10.38;48.34;100629.06;4987780;28;20041;-69
2023/04/23 07:52:45;;;;;;;56.08;29.13;;;;;;;10.39;47.07;100628.13;5006049;28;20560;-71
2023/04/23 07:55:11;;;;;;;69.22;30.45;;;;;;;10.85;46.99;100623.53;5005603;28;20041;-71
2023/04/23 07:57:36;;;;;;;59.25;28.63;;;;;;;11.58;47.05;100621.03;5006932;28;20430;-70
2023/04/23 08:00:03;;;;;;;55.22;29.85;;;;;;;13.07;42.33;100622.16;5007502;28;20050;-71
2023/04/23 08:02:37;;;;;;;59.28;28.92;;;;;;;13.31;41.72;100613.84;5007112;28;20042;-71
2023/04/23 08:05:02;;;;;;;55.95;29.70;;;;;;;15.23;38.52;100601.63;5005583;28;20327;-70
2023/04/23 08:07:28;;;;;;;50.63;27.40;;;;;;;16.62;36.47;100602.00;5007386;28;20037;-71
2023/04/23 08:09:54;;;;;;;50.75;25.20;;;;;;;18.53;32.35;100593.31;5005018;28;20052;-71
2023/04/23 08:12:20;;;;;;;49.78;24.90;;;;;;;19.15;31.40;100597.25;5005548;28;20041;-71
2023/04/23 08:14:46;;;;;;;39.38;22.48;;;;;;;18.66;30.06;100578.16;5005200;28;20593;-70
2023/04/23 08:17:14;;;;;;;38.72;21.17;;;;;;;19.38;30.47;100585.59;5020087;28;20044;-70
2023/04/23 08:19:39;;;;;;;43.28;22.42;;;;;;;19.77;28.88;100580.66;4973035;28;20041;-70
2023/04/23 08:22:05;;;;;;;44.92;22.48;;;;;;;19.02;29.41;100578.84;5004712;28;20501;-71
2023/04/23 08:24:30;;;;;;;36.72;22.25;;;;;;;18.46;29.08;100571.78;5002727;28;20137;-71
2023/04/23 08:26:56;;;;;;;36.75;21.92;;;;;;;16.69;33.31;100573.41;5005879;28;20057;-70
2023/04/23 08:29:21;;;;;;;35.08;21.90;;;;;;;17.60;31.08;100573.88;4992267;28;20052;-71
2023/04/23 08:31:47;;;;;;;44.30;23.60;;;;;;;18.16;32.86;100569.66;5006073;28;20116;-71
2023/04/23 08:34:14;;;;;;;33.70;21.02;;;;;;;18.79;29.45;100562.97;5000701;28;20072;-71
2023/04/23 08:36:40;;;;;;;41.55;21.52;;;;;;;19.17;29.83;100564.38;4986830;28;20036;-70
2023/04/23 08:39:05;;;;;;;40.30;20.48;;;;;;;19.10;28.11;100565.84;5002571;28;20402;-72
2023/04/23 08:41:39;;;;;;;34.75;19.80;;;;;;;18.64;30.07;100564.19;5002786;28;20120;-71
2023/04/23 08:44:16;;;;;;;34.03;20.05;;;;;;;17.21;30.60;100561.78;4991237;28;20446;-71
2023/04/23 08:46:43;;;;;;;33.25;20.23;;;;;;;15.93;34.42;100573.31;5002673;28;20034;-71
2023/04/23 08:49:14;;;;;;;34.40;19.02;;;;;;;16.06;32.81;100561.94;5002939;28;20041;-71
2023/04/23 08:51:45;;;;;;;34.13;18.30;;;;;;;18.08;30.85;100557.06;5003134;28;20029;-71
2023/04/23 08:54:14;;;;;;;34.05;20.20;;;;;;;17.90;32.14;100564.59;5002070;28;20481;-71
2023/04/23 08:56:40;;;;;;;29.20;17.70;;;;;;;18.03;30.21;100557.41;4992825;28;20333;-71
2023/04/23 08:59:06;;;;;;;28.40;16.02;;;;;;;18.65;30.20;100560.56;5006006;28;20481;-71
2023/04/23 09:01:32;;;;;;;31.27;18.05;;;;;;;18.09;30.48;100565.81;5000537;28;20048;-71
2023/04/23 09:03:59;;;;;;;29.10;16.60;;;;;;;18.11;30.74;100554.16;5022160;28;20053;-71
2023/04/23 09:06:25;;;;;;;27.98;17.30;;;;;;;17.74;29.93;100561.41;4998119;28;20337;-70
2023/04/23 09:08:52;;;;;;;27.58;16.35;;;;;;;16.42;32.07;100562.06;5003762;28;20524;-72
2023/04/23 09:11:18;;;;;;;27.38;15.63;;;;;;;15.27;34.24;100553.94;5001543;28;20069;-72
2023/04/23 09:13:44;;;;;;;28.25;16.50;;;;;;;16.06;34.31;100557.50;5003803;28;20049;-70
2023/04/23 09:16:10;;;;;;;33.60;16.65;;;;;;;15.79;34.68;100555.78;5009658;28;20044;-71
2023/04/23 09:18:36;;;;;;;27.05;15.95;;;;;;;16.22;34.50;100546.78;5006382;28;21393;-70
2023/04/23 09:21:03;;;;;;;27.30;16.45;;;;;;;15.96;33.94;100545.88;5013164;28;20056;-71
2023/04/23 09:23:30;;;;;;;27.33;15.98;;;;;;;15.72;35.03;100548.38;5006429;28;20358;-71
2023/04/23 09:25:56;;;;;;;25.65;15.05;;;;;;;16.61;33.46;100537.00;4994705;28;20291;-70
2023/04/23 09:28:36;;;;;;;25.38;15.77;;;;;;;16.73;31.30;100530.88;5007561;28;20034;-71
2023/04/23 09:31:04;;;;;;;24.52;13.75;;;;;;;17.45;32.69;100530.06;5011678;28;20120;-70
2023/04/23 09:33:33;;;;;;;23.67;14.00;;;;;;;16.65;30.49;100527.94;5006114;28;20056;-70
2023/04/23 09:36:04;;;;;;;21.40;12.95;;;;;;;16.12;32.12;100521.97;5019782;28;20462;-72
2023/04/23 09:38:33;;;;;;;18.73;12.25;;;;;;;16.34;31.27;100516.91;5006226;28;20057;-71
2023/04/23 09:40:58;;;;;;;19.55;11.77;;;;;;;16.41;30.48;100523.41;5024269;28;20431;-71
2023/04/23 09:43:29;;;;;;;22.15;12.35;;;;;;;14.73;33.98;100523.16;5006467;28;20037;-72
2023/04/23 09:45:54;;;;;;;22.13;12.77;;;;;;;15.37;33.75;100517.31;5007574;28;20063;-71
2023/04/23 09:48:20;;;;;;;17.83;10.68;;;;;;;15.74;32.53;100520.97;5003823;28;20348;-71
2023/04/23 09:50:46;;;;;;;18.65;11.95;;;;;;;15.66;33.03;100510.13;5005851;28;20084;-71
2023/04/23 09:53:13;;;;;;;17.95;11.63;;;;;;;15.59;32.58;100519.38;4992889;28;20127;-72
2023/04/23 09:55:39;;;;;;;19.27;10.70;;;;;;;16.72;31.75;100513.34;5005172;28;20859;-71
2023/04/23 09:58:11;;;;;;;21.48;11.68;;;;;;;17.44;32.57;100507.22;5009424;28;20517;-74
2023/04/23 10:00:37;;;;;;;;;;;;;;;15.62;32.52;100515.69;5004603;28;20330;-71
2023/04/23 10:03:05;;;;;;;22.50;11.82;;;;;;;14.69;33.63;100516.38;5007671;28;19944;-71
2023/04/23 10:05:31;;;;;;;17.92;12.07;;;;;;;16.34;32.34;100519.53;4988142;28;20511;-71
2023/04/23 10:07:56;;;;;;;18.33;11.38;;;;;;;17.23;32.08;100513.16;5008200;28;20025;-71
2023/04/23 10:10:22;;;;;;;20.45;11.75;;;;;;;17.51;31.82;100505.84;5022929;28;20045;-70
2023/04/23 10:12:51;;;;;;;20.02;12.43;;;;;;;18.44;31.59;100516.31;5024996;28;20040;-71
2023/04/23 10:15:17;;;;;;;21.65;12.82;;;;;;;18.60;30.30;100520.41;5024611;28;20060;-71
2023/04/23 10:17:45;;;;;;;20.92;13.77;;;;;;;16.31;33.45;100522.41;5025120;28;20037;-71
2023/04/23 10:20:12;;;;;;;19.45;13.90;;;;;;;15.07;36.40;100526.25;5027350;28;20131;-71
2023/04/23 10:22:39;;;;;;;20.15;12.70;;;;;;;15.49;35.44;100527.06;5024077;28;20136;-71
2023/04/23 10:25:10;;;;;;;18.55;11.40;;;;;;;17.46;32.69;100510.59;5027066;28;20090;-70
2023/04/23 10:27:41;;;;;;;19.77;12.90;;;;;;;17.52;31.83;100519.91;5025555;28;20164;-70
2023/04/23 10:30:08;;;;;;;21.52;13.07;;;;;;;17.40;33.15;100529.53;5025917;28;20041;-71
2023/04/23 10:32:35;;;;;;;20.85;13.30;;;;;;;16.23;35.06;100532.63;5021095;28;20039;-71
2023/04/23 10:35:00;;;;;;;22.38;12.43;;;;;;;17.48;33.27;100524.56;5027926;28;20143;-72
2023/04/23 10:37:27;;;;;;;21.88;13.32;;;;;;;17.86;32.92;100528.75;5025833;28;20047;-72
2023/04/23 10:39:55;;;;;;;28.17;14.05;;;;;;;15.88;35.77;100527.94;5026361;28;20052;-72
2023/04/23 10:42:22;;;;;;;20.00;13.07;;;;;;;16.95;34.46;100530.19;5028846;28;20055;-71
2023/04/23 10:44:48;;;;;;;22.05;12.73;;;;;;;17.91;33.62;100520.47;5016278;28;20136;-72
2023/04/23 10:47:15;;;;;;;21.45;12.80;;;;;;;18.64;33.05;100520.03;5029168;28;20029;-71
2023/04/23 10:49:41;;;;;;;20.30;13.40;;;;;;;18.27;31.70;100519.44;5023961;28;20041;-72
2023/04/23 10:52:17;;;;;;;19.88;12.32;;;;;;;17.80;32.94;100510.72;5021087;28;20032;-72
2023/04/23 10:54:49;;;;;;;19.90;13.10;;;;;;;16.34;34.60;100503.72;5024664;28;20048;-71
2023/04/23 10:57:14;;;;;;;23.90;12.60;;;;;;;16.68;35.64;100503.94;5027232;28;20029;-71
2023/04/23 10:59:52;;;;;;;19.17;12.50;;;;;;;16.78;33.82;100505.03;5026000;28;20037;-71
2023/04/23 11:02:18;;;;;;;21.25;12.60;;;;;;;17.91;33.26;100497.53;5024950;28;20299;-71
2023/04/23 11:04:45;;;;;;;17.50;11.63;;;;;;;18.01;32.92;100493.22;5025521;28;20040;-71
2023/04/23 11:07:12;;;;;;;18.42;11.27;;;;;;;18.64;32.36;100490.09;5011613;28;20037;-72
2023/04/23 11:09:47;;;;;;;17.02;10.98;;;;;;;18.19;32.08;100490.97;5013481;28;20041;-71
2023/04/23 11:12:31;;;;;;;17.55;11.77;;;;;;;18.10;31.79;100490.81;5016439;28;20484;-72
2023/04/23 11:15:00;;;;;;;16.35;11.70;;;;;;;18.32;31.82;100485.56;5001423;28;20297;-71